Time;durP1;ratioP1;P1;durP2;ratioP2;P2;SDS_P1;SDS_P2;PMS_P1;PMS_P2;Temp;Humidity;BMP_temperature;BMP_pressure;BME280_temperature;BME280_humidity;BME280_pressure;Samples;Min_cycle;Max_cycle;Signal;HPM_P1;HPM_P2
2024/04/23 00:00:10;;;;;;;3.63;3.30;;;6.30;99.90;;;;;;5489336;26;20221;-64
2024/04/23 00:02:38;;;;;;;4.77;4.13;;;6.10;99.90;;;;;;5489246;26;20225;-64
2024/04/23 00:05:04;;;;;;;4.07;3.67;;;6.10;99.90;;;;;;5489321;26;20447;-64
2024/04/23 00:07:32;;;;;;;3.75;3.45;;;6.10;99.90;;;;;;5489484;26;20210;-64
2024/04/23 00:10:00;;;;;;;3.70;3.50;;;6.20;99.90;;;;;;5489177;26;20210;-64
2024/04/23 00:12:28;;;;;;;3.83;3.60;;;6.10;99.90;;;;;;5489346;26;20447;-64
2024/04/23 00:14:54;;;;;;;4.00;3.60;;;6.10;99.90;;;;;;5489035;26;20977;-64
2024/04/23 00:17:22;;;;;;;8.53;3.73;;;6.00;99.90;;;;;;5488931;26;20495;-64
2024/04/23 00:19:48;;;;;;;3.80;3.50;;;5.90;99.90;;;;;;5489033;26;20309;-64
2024/04/23 00:22:16;;;;;;;3.40;3.10;;;5.80;99.90;;;;;;5489276;26;20226;-64
2024/04/23 00:24:41;;;;;;;4.20;3.80;;;5.60;99.90;;;;;;5489372;26;20218;-64
2024/04/23 00:27:12;;;;;;;4.07;3.77;;;5.50;99.90;;;;;;5489222;26;20248;-64
2024/04/23 00:29:38;;;;;;;4.10;3.75;;;5.40;99.90;;;;;;5488941;26;20242;-64
2024/04/23 00:32:06;;;;;;;4.07;3.67;;;5.30;99.90;;;;;;5488928;26;20249;-64
2024/04/23 00:34:32;;;;;;;4.15;3.85;;;5.40;99.90;;;;;;5489067;26;20587;-64
2024/04/23 00:37:01;;;;;;;4.10;3.80;;;5.40;99.90;;;;;;5488793;26;20239;-64
2024/04/23 00:39:26;;;;;;;4.15;3.42;;;5.10;99.90;;;;;;5488692;26;20245;-64
2024/04/23 00:41:55;;;;;;;3.80;3.50;;;5.10;99.90;;;;;;5488633;26;20213;-65
2024/04/23 00:44:23;;;;;;;3.65;3.45;;;5.10;99.90;;;;;;5488686;26;20538;-64
2024/04/23 00:46:52;;;;;;;4.32;4.03;;;5.10;99.90;;;;;;5488467;26;20214;-64
2024/04/23 00:49:18;;;;;;;3.85;3.55;;;5.00;99.90;;;;;;5488489;26;20256;-64
2024/04/23 00:51:50;;;;;;;3.90;3.70;;;5.00;99.90;;;;;;5488418;26;20587;-64
2024/04/23 00:54:17;;;;;;;7.68;3.30;;;4.90;99.90;;;;;;5488299;26;20414;-64
2024/04/23 00:56:45;;;;;;;4.55;4.15;;;4.70;99.90;;;;;;5490429;26;20249;-64
2024/04/23 00:59:12;;;;;;;4.00;3.70;;;4.60;99.90;;;;;;5492071;26;20244;-64
2024/04/23 01:01:43;;;;;;;4.95;3.70;;;4.70;99.90;;;;;;5492072;26;20616;-64
2024/04/23 01:04:09;;;;;;;3.83;3.53;;;4.70;99.90;;;;;;5491947;26;20210;-64
2024/04/23 01:06:38;;;;;;;4.23;3.93;;;4.70;99.90;;;;;;5492081;26;20263;-64
2024/04/23 01:09:03;;;;;;;3.65;3.45;;;4.70;99.90;;;;;;5491950;26;20233;-64
2024/04/23 01:11:34;;;;;;;4.13;3.83;;;4.70;99.90;;;;;;5491828;26;20222;-64
2024/04/23 01:14:00;;;;;;;3.83;3.53;;;4.80;99.90;;;;;;5491760;26;20210;-64
2024/04/23 01:16:34;;;;;;;3.90;3.50;;;4.80;99.90;;;;;;5492213;26;20247;-64
2024/04/23 01:19:04;;;;;;;5.60;3.65;;;4.70;99.90;;;;;;5491882;26;20740;-64
2024/04/23 01:21:43;;;;;;;5.10;3.60;;;4.60;99.90;;;;;;5492025;26;20685;-64
2024/04/23 01:24:15;;;;;;;4.03;3.63;;;4.60;99.90;;;;;;5491795;26;20561;-64
2024/04/23 01:26:46;;;;;;;4.00;3.60;;;4.60;99.90;;;;;;5491621;26;20209;-64
2024/04/23 01:29:12;;;;;;;4.60;4.20;;;4.50;99.90;;;;;;5491641;26;20237;-64
2024/04/23 01:31:41;;;;;;;3.78;3.47;;;4.60;99.90;;;;;;5491594;26;20232;-64
2024/04/23 01:34:06;;;;;;;4.45;4.07;;;4.60;99.90;;;;;;5491527;26;20759;-64
2024/04/23 01:36:34;;;;;;;4.17;3.80;;;4.50;99.90;;;;;;5491464;26;20217;-64
2024/04/23 01:39:01;;;;;;;4.53;4.20;;;4.40;99.90;;;;;;5491488;26;20580;-64
2024/04/23 01:41:29;;;;;;;4.38;4.07;;;4.10;99.90;;;;;;5491367;26;20210;-64
2024/04/23 01:43:59;;;;;;;3.85;3.55;;;4.10;99.90;;;;;;5491373;26;20221;-64
2024/04/23 01:46:27;;;;;;;4.25;3.80;;;4.20;99.90;;;;;;5491419;26;20214;-64
2024/04/23 01:48:53;;;;;;;4.15;3.85;;;4.20;99.90;;;;;;5491306;26;20573;-64
2024/04/23 01:51:22;;;;;;;4.87;4.47;;;4.00;99.90;;;;;;5491311;26;20210;-64
2024/04/23 01:53:47;;;;;;;4.10;3.80;;;4.00;99.90;;;;;;5491086;26;21002;-64
2024/04/23 01:56:15;;;;;;;4.63;3.83;;;4.00;99.90;;;;;;5491393;26;20218;-64
2024/04/23 01:59:02;;;;;;;4.30;4.00;;;4.10;99.90;;;;;;5493793;26;20317;-64
2024/04/23 02:01:32;;;;;;;4.53;4.20;;;4.10;99.90;;;;;;5491089;26;20209;-64
2024/04/23 02:03:59;;;;;;;3.95;3.65;;;4.10;99.90;;;;;;5491127;26;20218;-64
2024/04/23 02:06:29;;;;;;;4.80;4.30;;;4.10;99.90;;;;;;5491177;26;20620;-64
2024/04/23 02:08:55;;;;;;;3.85;3.40;;;4.10;99.90;;;;;;5490311;26;20210;-64
2024/04/23 02:11:24;;;;;;;4.00;3.67;;;4.10;99.90;;;;;;5491107;26;20273;-64
2024/04/23 02:13:50;;;;;;;3.55;3.25;;;4.10;99.90;;;;;;5490859;26;20245;-64
2024/04/23 02:16:21;;;;;;;3.80;3.50;;;4.20;99.90;;;;;;5491024;26;20765;-64
2024/04/23 02:18:47;;;;;;;4.43;4.03;;;4.00;99.90;;;;;;5490978;26;20210;-64
2024/04/23 02:21:15;;;;;;;4.33;3.93;;;4.00;99.90;;;;;;5491091;26;20214;-64
2024/04/23 02:23:40;;;;;;;4.07;3.75;;;3.80;99.90;;;;;;5490859;26;20222;-64
2024/04/23 02:26:08;;;;;;;3.53;3.30;;;3.90;99.90;;;;;;5490838;26;20244;-64
2024/04/23 02:28:34;;;;;;;5.00;4.47;;;3.90;99.90;;;;;;5490866;26;20229;-64
2024/04/23 02:31:02;;;;;;;6.17;5.57;;;3.70;99.90;;;;;;5491045;26;20222;-64
2024/04/23 02:33:30;;;;;;;4.28;3.40;;;3.70;99.90;;;;;;5490746;26;20206;-64
2024/04/23 02:35:58;;;;;;;4.82;4.47;;;3.70;99.90;;;;;;5490627;26;20655;-64
2024/04/23 02:38:24;;;;;;;3.47;3.28;;;3.80;99.90;;;;;;5490791;26;20214;-64
2024/04/23 02:40:52;;;;;;;4.03;3.43;;;3.90;99.90;;;;;;5490632;26;20214;-64
2024/04/23 02:43:17;;;;;;;5.18;4.78;;;3.90;99.90;;;;;;5490689;26;20536;-64
2024/04/23 02:45:46;;;;;;;4.80;4.40;;;3.90;99.90;;;;;;5490521;26;20214;-64
2024/04/23 02:48:11;;;;;;;4.38;4.00;;;4.00;99.90;;;;;;5490514;26;20221;-64
2024/04/23 02:50:42;;;;;;;4.80;4.50;;;4.00;99.90;;;;;;5490589;26;20561;-64
2024/04/23 02:53:07;;;;;;;4.05;3.75;;;4.00;99.90;;;;;;5490447;26;20206;-64
2024/04/23 02:55:35;;;;;;;5.70;5.30;;;4.00;99.90;;;;;;5490200;26;20261;-63
2024/04/23 02:58:01;;;;;;;4.50;4.10;;;4.10;99.90;;;;;;5490322;26;20214;-64
2024/04/23 03:00:29;;;;;;;5.17;4.73;;;4.10;99.90;;;;;;5490680;26;20708;-63
2024/04/23 03:02:55;;;;;;;5.07;4.68;;;4.10;99.90;;;;;;5490641;26;20225;-64
2024/04/23 03:05:23;;;;;;;5.53;4.97;;;4.10;99.90;;;;;;5490265;26;20226;-64
2024/04/23 03:07:51;;;;;;;5.75;5.25;;;3.90;99.90;;;;;;5490240;26;20250;-64
2024/04/23 03:10:19;;;;;;;5.40;4.95;;;3.80;99.90;;;;;;5490078;26;20312;-63
2024/04/23 03:12:45;;;;;;;5.45;4.95;;;3.90;99.90;;;;;;5490127;26;20732;-63
2024/04/23 03:15:13;;;;;;;5.93;5.37;;;3.90;99.90;;;;;;5490010;26;20214;-63
2024/04/23 03:17:38;;;;;;;5.43;4.55;;;4.00;99.90;;;;;;5489987;26;20229;-63
2024/04/23 03:20:08;;;;;;;4.40;4.00;;;4.00;99.90;;;;;;5488356;26;20222;-63
2024/04/23 03:22:33;;;;;;;4.38;4.07;;;4.00;99.90;;;;;;5489881;26;20491;-63
2024/04/23 03:25:04;;;;;;;4.53;4.13;;;4.10;99.90;;;;;;5490151;26;20773;-64
2024/04/23 03:27:29;;;;;;;4.50;4.10;;;4.10;99.90;;;;;;5489850;26;20310;-63
2024/04/23 03:29:57;;;;;;;4.50;4.10;;;4.10;99.90;;;;;;5489801;26;20218;-63
2024/04/23 03:32:23;;;;;;;4.68;4.35;;;4.10;99.90;;;;;;5490137;26;20214;-63
2024/04/23 03:34:51;;;;;;;6.20;4.20;;;4.20;99.90;;;;;;5489286;26;20736;-64
2024/04/23 03:37:19;;;;;;;4.57;4.20;;;4.20;99.90;;;;;;5488968;26;20248;-63
2024/04/23 03:39:47;;;;;;;4.15;3.85;;;4.30;99.90;;;;;;5488844;26;20744;-64
2024/04/23 03:42:18;;;;;;;4.45;4.05;;;4.20;99.90;;;;;;5488828;26;20210;-64
2024/04/23 03:44:46;;;;;;;4.93;4.53;;;4.30;99.90;;;;;;5489009;26;20248;-63
2024/04/23 03:47:14;;;;;;;4.75;4.35;;;4.30;99.90;;;;;;5489538;26;20221;-64
2024/04/23 03:49:40;;;;;;;5.57;5.05;;;4.20;99.90;;;;;;5489450;26;20574;-63
2024/04/23 03:52:09;;;;;;;4.73;4.33;;;4.20;99.90;;;;;;5489462;26;20226;-63
2024/04/23 03:54:37;;;;;;;7.28;4.50;;;4.20;99.90;;;;;;5489113;26;20226;-63
2024/04/23 03:57:03;;;;;;;4.90;4.50;;;4.20;99.90;;;;;;5489331;26;20206;-63
2024/04/23 03:59:33;;;;;;;5.03;4.63;;;4.20;99.90;;;;;;5489421;26;20309;-63
2024/04/23 04:07:26;;;;;;;4.78;4.05;;;4.30;99.90;;;;;;5492125;26;20298;-64
2024/04/23 04:09:54;;;;;;;4.40;4.07;;;4.30;99.90;;;;;;5489136;26;20554;-64
2024/04/23 04:12:20;;;;;;;5.03;4.53;;;4.40;99.90;;;;;;5489022;26;20237;-63
2024/04/23 04:14:51;;;;;;;4.17;3.83;;;4.40;99.90;;;;;;5489384;26;20221;-63
2024/04/23 04:17:16;;;;;;;4.50;4.20;;;4.40;99.90;;;;;;5489063;26;20222;-63
2024/04/23 04:19:44;;;;;;;5.63;4.10;;;4.40;99.90;;;;;;5489163;26;20228;-63
2024/04/23 04:22:12;;;;;;;5.68;5.13;;;4.50;99.90;;;;;;5488818;26;20268;-63
2024/04/23 04:24:38;;;;;;;5.50;5.07;;;4.50;99.90;;;;;;5488898;26;20220;-63
2024/04/23 04:27:06;;;;;;;5.20;4.80;;;4.50;99.90;;;;;;5489146;26;20685;-64
2024/04/23 04:29:32;;;;;;;4.30;4.00;;;4.50;99.90;;;;;;5488707;26;20248;-64
2024/04/23 04:32:02;;;;;;;4.57;4.17;;;4.50;99.90;;;;;;5491145;26;20222;-63
2024/04/23 04:34:28;;;;;;;5.70;5.03;;;4.50;99.90;;;;;;5492437;26;20213;-64
2024/04/23 04:36:56;;;;;;;7.53;4.10;;;4.30;99.90;;;;;;5492413;26;20214;-64
2024/04/23 04:39:22;;;;;;;4.65;4.30;;;4.30;99.90;;;;;;5492158;26;20602;-64
2024/04/23 04:41:50;;;;;;;3.80;3.40;;;4.30;99.90;;;;;;5492147;26;20213;-63
2024/04/23 04:44:15;;;;;;;4.07;3.78;;;4.30;99.90;;;;;;5492241;26;20250;-64
2024/04/23 04:46:44;;;;;;;4.73;4.20;;;4.30;99.90;;;;;;5492039;26;20254;-63
2024/04/23 04:49:12;;;;;;;4.30;4.00;;;4.40;99.90;;;;;;5492013;26;20240;-63
2024/04/23 04:51:40;;;;;;;4.88;3.95;;;4.40;99.90;;;;;;5492194;26;20214;-64
2024/04/23 04:54:05;;;;;;;6.85;4.90;;;4.50;99.90;;;;;;5491982;26;20225;-64
2024/04/23 04:56:33;;;;;;;4.90;4.40;;;4.50;99.90;;;;;;5491939;26;20244;-64
2024/04/23 04:58:59;;;;;;;5.10;4.70;;;4.60;99.90;;;;;;5491865;26;20249;-64
2024/04/23 05:01:27;;;;;;;5.13;4.67;;;4.60;99.90;;;;;;5491830;26;20226;-63
2024/04/23 05:03:57;;;;;;;5.40;4.90;;;4.70;99.90;;;;;;5491929;26;20712;-63
2024/04/23 05:06:25;;;;;;;4.78;4.43;;;4.90;99.90;;;;;;5491938;26;20213;-63
2024/04/23 05:08:53;;;;;;;4.70;4.30;;;4.70;99.90;;;;;;5491631;26;20236;-63
2024/04/23 05:11:18;;;;;;;6.97;4.97;;;4.80;99.90;;;;;;5491778;26;20236;-64
2024/04/23 05:13:47;;;;;;;5.23;4.83;;;4.80;99.90;;;;;;5491732;26;20218;-63
2024/04/23 05:16:12;;;;;;;5.57;5.07;;;4.80;99.90;;;;;;5491518;26;20206;-64
2024/04/23 05:18:41;;;;;;;4.93;4.53;;;4.80;99.90;;;;;;5491493;26;20244;-64
2024/04/23 05:21:06;;;;;;;10.43;5.25;;;4.90;99.90;;;;;;5491610;26;20542;-63
2024/04/23 05:23:37;;;;;;;10.10;4.33;;;4.60;99.90;;;;;;5491882;26;20312;-64
2024/04/23 05:26:03;;;;;;;5.68;5.07;;;4.70;99.90;;;;;;5491703;26;20206;-64
2024/04/23 05:28:31;;;;;;;5.53;4.97;;;4.80;99.90;;;;;;5491661;26;20240;-63
2024/04/23 05:33:43;;;;;;;4.80;4.40;;;5.10;99.90;;;;;;5493968;26;20240;-64
2024/04/23 05:36:12;;;;;;;6.80;4.25;;;5.30;99.90;;;;;;5491240;26;20222;-64
2024/04/23 05:38:44;;;;;;;5.13;3.92;;;5.30;99.90;;;;;;5491414;26;20229;-64
2024/04/23 05:41:12;;;;;;;4.72;4.32;;;5.40;99.90;;;;;;5491233;26;20676;-64
2024/04/23 05:43:41;;;;;;;4.97;4.35;;;5.50;99.90;;;;;;5489946;26;20206;-64
2024/04/23 05:46:09;;;;;;;3.83;3.53;;;5.70;99.90;;;;;;5491229;26;20309;-64
2024/04/23 05:49:14;;;;;;;5.07;4.57;;;5.90;99.90;;;;;;5491289;26;20218;-64
2024/04/23 05:52:20;;;;;;;5.25;4.75;;;6.10;99.90;;;;;;5490939;26;20240;-64
2024/04/23 05:55:26;;;;;;;5.55;4.47;;;6.30;99.90;;;;;;5490731;26;20260;-64
2024/04/23 05:57:54;;;;;;;4.47;4.07;;;6.50;99.90;;;;;;5490907;26;20240;-64
2024/04/23 06:00:22;;;;;;;4.13;3.75;;;6.70;99.90;;;;;;5491040;26;20874;-64
2024/04/23 06:02:48;;;;;;;5.03;4.50;;;6.70;99.90;;;;;;5490815;26;20213;-63
2024/04/23 06:05:16;;;;;;;4.97;4.40;;;6.70;99.90;;;;;;5490783;26;20501;-63
2024/04/23 06:07:42;;;;;;;7.33;4.30;;;6.70;99.90;;;;;;5490906;26;20210;-63
2024/04/23 06:10:10;;;;;;;5.20;4.70;;;6.90;99.90;;;;;;5491071;26;20594;-63
2024/04/23 06:12:35;;;;;;;4.97;4.40;;;7.20;99.90;;;;;;5490837;26;20218;-63
2024/04/23 06:15:07;;;;;;;5.07;4.60;;;7.20;99.90;;;;;;5490688;26;20454;-64
2024/04/23 06:17:34;;;;;;;6.80;4.23;;;7.20;99.90;;;;;;5490745;26;20652;-63
2024/04/23 06:20:03;;;;;;;5.20;4.70;;;7.30;99.90;;;;;;5490665;26;20439;-63
2024/04/23 06:22:31;;;;;;;6.60;5.20;;;7.50;99.90;;;;;;5490598;26;20495;-63
2024/04/23 06:24:59;;;;;;;5.80;5.30;;;7.60;99.90;;;;;;5490635;26;20443;-64
2024/04/23 06:27:25;;;;;;;8.67;6.20;;;7.70;99.90;;;;;;5490607;26;20976;-64
2024/04/23 06:29:54;;;;;;;5.47;4.97;;;7.60;99.90;;;;;;5490649;26;20450;-64
2024/04/23 06:32:23;;;;;;;5.70;5.20;;;7.60;99.90;;;;;;5490570;26;20455;-64
2024/04/23 06:34:51;;;;;;;6.00;5.50;;;7.60;99.90;;;;;;5490479;26;20876;-64
2024/04/23 06:37:20;;;;;;;5.30;4.80;;;7.80;99.90;;;;;;5490391;26;20431;-64
2024/04/23 06:39:46;;;;;;;6.13;5.53;;;7.90;99.90;;;;;;5490623;26;20489;-64
2024/04/23 06:42:14;;;;;;;8.10;7.23;;;8.10;99.90;;;;;;5490387;26;20459;-67
2024/04/23 06:44:39;;;;;;;7.13;6.50;;;8.10;99.90;;;;;;5491190;26;20942;-64
2024/04/23 06:47:07;;;;;;;7.90;7.10;;;8.10;99.90;;;;;;5490182;26;20499;-64
2024/04/23 06:49:37;;;;;;;8.47;7.70;;;7.90;99.90;;;;;;5490492;26;20241;-64
2024/04/23 06:52:06;;;;;;;7.37;6.67;;;8.10;99.90;;;;;;5490347;26;20447;-64
2024/04/23 06:54:32;;;;;;;6.50;5.90;;;8.10;99.90;;;;;;5489791;26;20513;-64
2024/04/23 06:57:00;;;;;;;8.53;7.73;;;8.20;99.90;;;;;;5490396;26;20451;-64
2024/04/23 06:59:25;;;;;;;7.40;6.73;;;8.00;99.90;;;;;;5490063;26;20222;-64
2024/04/23 07:01:54;;;;;;;7.20;6.50;;;8.00;99.90;;;;;;5490132;26;20502;-64
2024/04/23 07:04:19;;;;;;;8.13;7.40;;;8.30;99.90;;;;;;5490113;26;20244;-64
2024/04/23 07:06:53;;;;;;;7.60;6.90;;;8.30;99.90;;;;;;5489847;26;20518;-65
2024/04/23 07:09:19;;;;;;;7.43;6.70;;;8.30;99.90;;;;;;5489970;26;20206;-65
2024/04/23 07:11:47;;;;;;;8.30;7.10;;;8.40;99.90;;;;;;5489802;26;20493;-65
2024/04/23 07:14:13;;;;;;;9.00;7.17;;;8.60;99.90;;;;;;5489914;26;20233;-67
2024/04/23 07:16:45;;;;;;;8.13;7.43;;;8.60;99.90;;;;;;5489882;26;20447;-63
2024/04/23 07:19:10;;;;;;;9.10;8.30;;;8.60;99.90;;;;;;5489920;26;20559;-63
2024/04/23 07:21:38;;;;;;;8.50;7.70;;;8.60;99.90;;;;;;5489891;26;20455;-65
2024/04/23 07:24:07;;;;;;;8.87;8.07;;;8.80;99.90;;;;;;5489648;26;20207;-67
2024/04/23 07:26:35;;;;;;;9.00;8.10;;;8.80;99.90;;;;;;5489849;26;20672;-63
2024/04/23 07:29:00;;;;;;;8.57;7.87;;;8.60;99.90;;;;;;5489891;26;21326;-65
2024/04/23 07:31:29;;;;;;;8.40;7.60;;;8.80;99.90;;;;;;5489900;26;20443;-65
2024/04/23 07:33:54;;;;;;;8.87;7.97;;;9.00;99.90;;;;;;5489578;26;20294;-65
2024/04/23 07:36:23;;;;;;;7.60;6.80;;;9.20;99.90;;;;;;5489680;26;20462;-65
2024/04/23 07:38:48;;;;;;;7.33;6.70;;;8.90;99.90;;;;;;5489612;26;20210;-63
2024/04/23 07:41:19;;;;;;;9.17;7.53;;;8.50;99.90;;;;;;5489068;26;20569;-66
2024/04/23 07:43:45;;;;;;;6.70;6.27;;;8.10;99.90;;;;;;5489284;26;20221;-65
2024/04/23 07:46:13;;;;;;;7.10;6.40;;;8.40;99.90;;;;;;5489382;26;20807;-65
2024/04/23 07:48:38;;;;;;;8.80;7.33;;;8.20;99.90;;;;;;5489192;26;20685;-66
2024/04/23 07:51:07;;;;;;;7.90;6.80;;;8.20;99.90;;;;;;5489412;26;20495;-68
2024/04/23 07:53:33;;;;;;;5.63;5.23;;;8.10;99.90;;;;;;5489229;26;20557;-63
2024/04/23 07:56:01;;;;;;;5.67;5.17;;;8.10;99.90;;;;;;5489231;26;20459;-63
2024/04/23 07:58:29;;;;;;;6.23;5.63;;;8.30;99.90;;;;;;5489196;26;20451;-68
2024/04/23 08:00:57;;;;;;;6.07;5.47;;;8.40;99.90;;;;;;5489316;26;20447;-67
2024/04/23 08:03:23;;;;;;;5.10;4.53;;;8.40;99.90;;;;;;5489233;26;21015;-67
2024/04/23 08:05:55;;;;;;;5.53;5.00;;;8.10;99.90;;;;;;5487939;26;20447;-65
2024/04/23 08:08:21;;;;;;;5.67;4.07;;;8.00;99.90;;;;;;5489157;26;20257;-62
2024/04/23 08:10:49;;;;;;;4.73;4.33;;;7.90;99.90;;;;;;5488982;26;20455;-64
2024/04/23 08:13:15;;;;;;;5.03;4.03;;;8.00;99.90;;;;;;5489006;26;20704;-66
2024/04/23 08:15:46;;;;;;;4.63;4.00;;;8.10;99.90;;;;;;5488851;26;20447;-66
2024/04/23 08:18:12;;;;;;;4.03;3.53;;;8.20;99.90;;;;;;5488886;26;20489;-62
2024/04/23 08:20:40;;;;;;;4.17;3.87;;;8.40;99.90;;;;;;5488764;26;20962;-62
2024/04/23 08:23:05;;;;;;;4.57;4.10;;;8.60;99.90;;;;;;5488657;26;20228;-67
2024/04/23 08:25:33;;;;;;;5.40;3.40;;;8.50;99.90;;;;;;5488752;26;20507;-66
2024/04/23 08:27:59;;;;;;;3.33;3.13;;;8.70;99.90;;;;;;5488985;26;20214;-63
2024/04/23 08:30:27;;;;;;;4.20;3.30;;;8.90;99.90;;;;;;5488760;26;20447;-64
2024/04/23 08:32:55;;;;;;;3.40;3.10;;;9.00;99.90;;;;;;5488711;26;20337;-63
2024/04/23 08:35:24;;;;;;;3.33;3.03;;;9.00;99.90;;;;;;5488443;26;20447;-64
2024/04/23 08:37:50;;;;;;;3.57;3.30;;;9.10;99.90;;;;;;5488723;26;20443;-63
2024/04/23 08:40:18;;;;;;;3.40;3.10;;;9.40;99.90;;;;;;5488449;26;20597;-62
2024/04/23 08:42:46;;;;;;;2.83;2.63;;;9.60;99.90;;;;;;5488366;26;20221;-65
2024/04/23 08:45:15;;;;;;;3.20;3.00;;;9.70;99.90;;;;;;5488313;26;20556;-64
2024/04/23 08:47:42;;;;;;;3.27;2.97;;;9.80;99.90;;;;;;5488274;26;20823;-67
2024/04/23 08:50:16;;;;;;;3.47;3.17;;;10.00;99.00;;;;;;5488049;26;20454;-66
2024/04/23 08:52:42;;;;;;;2.70;2.50;;;10.20;97.50;;;;;;5488270;26;20447;-63
2024/04/23 08:55:10;;;;;;;2.80;2.60;;;10.20;95.70;;;;;;5487949;26;20565;-63
2024/04/23 08:57:39;;;;;;;3.40;3.20;;;10.20;95.30;;;;;;5487974;26;20491;-64
2024/04/23 09:00:09;;;;;;;2.97;2.77;;;10.20;92.20;;;;;;5488207;26;20557;-66
2024/04/23 09:02:36;;;;;;;2.80;2.60;;;10.30;91.10;;;;;;5487983;26;20439;-66
2024/04/23 09:05:05;;;;;;;3.53;2.97;;;10.10;91.20;;;;;;5487921;26;20443;-65
2024/04/23 09:07:35;;;;;;;2.87;2.67;;;10.20;92.50;;;;;;5487836;26;20442;-64
2024/04/23 09:10:05;;;;;;;3.57;3.20;;;10.30;92.90;;;;;;5487859;26;20511;-64
2024/04/23 09:12:31;;;;;;;2.70;2.50;;;10.30;89.10;;;;;;5487792;26;20515;-64
2024/04/23 09:14:59;;;;;;;4.67;2.97;;;10.30;90.00;;;;;;5488039;26;20965;-63
2024/04/23 09:17:25;;;;;;;3.43;2.73;;;10.30;91.70;;;;;;5487854;26;20443;-64
2024/04/23 09:19:54;;;;;;;2.73;2.53;;;10.40;90.60;;;;;;5491747;26;20905;-64
2024/04/23 09:22:19;;;;;;;3.73;3.43;;;10.60;91.50;;;;;;5491556;26;20210;-64
2024/04/23 09:24:50;;;;;;;5.90;3.40;;;10.60;88.80;;;;;;5491559;26;20503;-63
2024/04/23 09:27:16;;;;;;;3.83;3.40;;;10.60;88.00;;;;;;5491304;26;20237;-64
2024/04/23 09:29:45;;;;;;;2.70;2.50;;;10.80;89.10;;;;;;5491370;26;20943;-66
2024/04/23 09:32:11;;;;;;;3.20;2.90;;;10.80;83.60;;;;;;5491231;26;20495;-63
2024/04/23 09:34:41;;;;;;;3.80;3.50;;;10.60;84.90;;;;;;5491309;26;20466;-66
2024/04/23 09:37:16;;;;;;;6.50;3.17;;;10.60;84.30;;;;;;5491377;26;20217;-64
2024/04/23 09:39:44;;;;;;;3.60;3.30;;;10.70;86.70;;;;;;5490628;26;20575;-65
2024/04/23 09:42:21;;;;;;;4.30;3.20;;;10.60;86.80;;;;;;5491231;26;20451;-66
2024/04/23 09:44:50;;;;;;;4.10;3.70;;;10.90;87.80;;;;;;5491259;26;20490;-68
2024/04/23 09:47:16;;;;;;;3.50;3.30;;;10.90;86.90;;;;;;5490756;26;20534;-67
2024/04/23 09:49:47;;;;;;;4.80;4.40;;;11.00;87.00;;;;;;5491085;26;20451;-68
2024/04/23 09:52:13;;;;;;;3.73;3.53;;;11.20;87.20;;;;;;5490948;26;20744;-66
2024/04/23 09:54:43;;;;;;;3.87;3.60;;;11.10;85.30;;;;;;5491025;26;20474;-64
2024/04/23 09:57:16;;;;;;;3.37;3.17;;;11.10;84.30;;;;;;5491192;26;20644;-66
2024/04/23 09:59:44;;;;;;;4.23;3.83;;;11.30;85.60;;;;;;5490877;26;20832;-67
2024/04/23 10:02:16;;;;;;;4.33;3.93;;;11.40;84.90;;;;;;5490680;26;20455;-67
2024/04/23 10:04:44;;;;;;;4.00;3.60;;;11.70;80.80;;;;;;5490848;26;20504;-67
2024/04/23 10:07:12;;;;;;;6.03;3.30;;;11.80;81.90;;;;;;5490672;26;20510;-67
2024/04/23 10:09:41;;;;;;;3.87;3.47;;;11.90;82.20;;;;;;5490744;26;21037;-67
2024/04/23 10:12:13;;;;;;;4.30;3.90;;;11.90;82.20;;;;;;5490680;26;20820;-65
2024/04/23 10:14:52;;;;;;;4.67;3.50;;;12.00;81.70;;;;;;5490651;26;20836;-65
2024/04/23 10:17:29;;;;;;;3.43;3.13;;;12.30;84.50;;;;;;5490523;26;21067;-66
2024/04/23 10:19:57;;;;;;;3.70;3.03;;;12.30;80.80;;;;;;5490342;26;20498;-64
2024/04/23 10:22:26;;;;;;;3.33;3.03;;;12.30;77.20;;;;;;5490588;26;20500;-67
2024/04/23 10:24:53;;;;;;;5.77;3.20;;;12.50;79.70;;;;;;5490708;26;20451;-68
2024/04/23 10:27:23;;;;;;;3.90;3.60;;;12.60;79.70;;;;;;5490470;26;20455;-67
2024/04/23 10:29:53;;;;;;;3.07;2.87;;;12.40;76.90;;;;;;5489805;26;20885;-67
2024/04/23 10:32:23;;;;;;;6.37;3.03;;;12.60;79.30;;;;;;5490508;26;20459;-67
2024/04/23 10:34:52;;;;;;;3.97;3.67;;;12.40;74.90;;;;;;5490144;26;20488;-67
2024/04/23 10:37:23;;;;;;;3.63;3.40;;;12.10;77.40;;;;;;5490343;26;20443;-65
2024/04/23 10:39:49;;;;;;;4.70;3.57;;;11.80;73.80;;;;;;5490260;26;20499;-70
2024/04/23 10:42:19;;;;;;;3.60;3.40;;;11.80;75.60;;;;;;5490064;26;20901;-65
2024/04/23 10:44:46;;;;;;;3.40;3.20;;;11.60;72.60;;;;;;5490414;26;20455;-64
2024/04/23 10:47:17;;;;;;;4.27;3.87;;;11.70;75.50;;;;;;5490236;26;20779;-66
2024/04/23 10:49:42;;;;;;;7.47;6.90;;;11.70;74.80;;;;;;5490117;26;20495;-69
2024/04/23 10:52:11;;;;;;;3.40;3.20;;;11.40;76.30;;;;;;5489998;26;20450;-67
2024/04/23 10:54:37;;;;;;;2.60;2.40;;;11.40;75.90;;;;;;5489876;26;20581;-67
2024/04/23 10:57:07;;;;;;;3.40;3.17;;;11.70;78.70;;;;;;5489964;26;20451;-65
2024/04/23 10:59:36;;;;;;;3.03;2.73;;;12.00;73.40;;;;;;5490222;26;20780;-66
2024/04/23 11:02:09;;;;;;;4.33;3.10;;;12.50;74.90;;;;;;5489739;26;20508;-67
2024/04/23 11:04:40;;;;;;;3.00;2.80;;;12.90;77.60;;;;;;5489870;26;20482;-71
2024/04/23 11:07:09;;;;;;;2.73;2.63;;;12.60;71.50;;;;;;5489939;26;20496;-73
2024/04/23 11:09:36;;;;;;;3.43;2.87;;;12.40;71.20;;;;;;5489955;26;20451;-71
2024/04/23 11:12:05;;;;;;;3.60;3.30;;;12.40;72.90;;;;;;5489796;26;20498;-69
2024/04/23 11:14:32;;;;;;;3.13;2.93;;;12.40;74.90;;;;;;5489775;26;20443;-71
2024/04/23 11:17:02;;;;;;;3.07;2.87;;;12.60;71.70;;;;;;5489765;26;20600;-69
2024/04/23 11:19:37;;;;;;;3.13;2.93;;;12.50;70.70;;;;;;5489533;26;20490;-67
2024/04/23 11:22:09;;;;;;;3.00;2.80;;;12.90;71.80;;;;;;5489653;26;20965;-68
2024/04/23 11:24:41;;;;;;;3.70;2.93;;;13.20;71.20;;;;;;5489695;26;20461;-69
2024/04/23 11:27:09;;;;;;;2.83;2.63;;;13.40;68.60;;;;;;5489637;26;20461;-64
2024/04/23 11:29:38;;;;;;;2.30;2.20;;;13.60;72.30;;;;;;5489447;26;20968;-63
2024/04/23 11:32:07;;;;;;;3.17;2.17;;;13.40;69.80;;;;;;5489982;26;20772;-67
2024/04/23 11:34:33;;;;;;;3.00;2.80;;;13.40;72.90;;;;;;5489391;26;20487;-63
2024/04/23 11:37:04;;;;;;;3.30;3.00;;;13.40;69.60;;;;;;5489553;26;20555;-63
2024/04/23 11:39:31;;;;;;;3.03;2.83;;;13.80;71.10;;;;;;5489396;26;20505;-66
2024/04/23 11:42:00;;;;;;;5.10;2.70;;;14.20;70.10;;;;;;5488073;26;20556;-66
2024/04/23 11:44:27;;;;;;;3.03;2.70;;;14.40;63.40;;;;;;5489435;26;20962;-63
2024/04/23 11:46:56;;;;;;;3.00;2.80;;;14.10;64.00;;;;;;5489139;26;20560;-63
2024/04/23 11:49:23;;;;;;;2.90;2.53;;;13.90;63.70;;;;;;5489218;26;20512;-65
2024/04/23 11:51:53;;;;;;;2.33;2.23;;;13.90;65.20;;;;;;5489166;26;20506;-65
2024/04/23 11:54:22;;;;;;;3.37;2.50;;;13.90;66.10;;;;;;5489287;26;20455;-59
2024/04/23 11:56:51;;;;;;;2.80;2.60;;;13.80;63.30;;;;;;5489030;26;20444;-68
2024/04/23 11:59:20;;;;;;;2.40;2.20;;;13.70;61.20;;;;;;5489051;26;20498;-74
2024/04/23 12:01:49;;;;;;;4.10;2.80;;;13.30;59.30;;;;;;5489320;26;20966;-64
2024/04/23 12:04:17;;;;;;;2.67;2.50;;;12.70;63.20;;;;;;5489067;26;20442;-64
2024/04/23 12:06:46;;;;;;;2.60;2.50;;;12.30;63.00;;;;;;5489445;26;20455;-64
2024/04/23 12:09:12;;;;;;;4.97;3.10;;;12.40;66.50;;;;;;5488813;26;20493;-66
2024/04/23 12:11:47;;;;;;;3.43;2.60;;;12.60;68.60;;;;;;5489103;26;20983;-66
2024/04/23 12:14:13;;;;;;;4.70;2.70;;;12.90;66.90;;;;;;5489003;26;20501;-65
2024/04/23 12:16:44;;;;;;;2.70;2.50;;;13.00;63.70;;;;;;5488920;26;20463;-68
2024/04/23 12:19:10;;;;;;;5.50;2.83;;;13.20;65.90;;;;;;5488776;26;20541;-68
2024/04/23 12:21:38;;;;;;;2.60;2.47;;;13.40;66.70;;;;;;5488908;26;20483;-67
2024/04/23 12:24:04;;;;;;;2.53;2.33;;;13.80;65.10;;;;;;5488699;26;20450;-71
2024/04/23 12:26:33;;;;;;;1.87;1.77;;;13.90;59.00;;;;;;5488603;26;20439;-70
2024/04/23 12:29:01;;;;;;;2.17;1.97;;;14.00;56.00;;;;;;5488651;26;20450;-72
2024/04/23 12:31:29;;;;;;;2.60;2.40;;;14.00;58.70;;;;;;5488697;26;20450;-65
2024/04/23 12:33:56;;;;;;;4.50;2.37;;;14.00;59.70;;;;;;5488444;26;20940;-65
2024/04/23 12:36:24;;;;;;;2.77;2.53;;;14.10;58.70;;;;;;5487989;26;20454;-64
2024/04/23 12:38:51;;;;;;;3.10;2.40;;;14.10;57.50;;;;;;5488458;26;20507;-64
2024/04/23 12:41:20;;;;;;;4.70;2.23;;;14.10;58.80;;;;;;5488143;26;20459;-67
2024/04/23 12:43:47;;;;;;;2.90;2.20;;;14.10;57.90;;;;;;5488233;26;20509;-65
2024/04/23 12:46:19;;;;;;;2.40;2.20;;;13.90;56.20;;;;;;5488265;26;20462;-66
2024/04/23 12:48:46;;;;;;;2.80;2.60;;;13.90;57.10;;;;;;5488116;26;20453;-63
2024/04/23 12:51:15;;;;;;;3.43;2.40;;;14.00;57.60;;;;;;5488142;26;20829;-66
2024/04/23 12:53:40;;;;;;;2.57;2.23;;;14.00;56.20;;;;;;5491652;26;20450;-66
2024/04/23 12:56:09;;;;;;;2.63;2.43;;;14.30;57.30;;;;;;5491816;26;21029;-66
2024/04/23 12:58:36;;;;;;;2.77;2.67;;;14.40;55.70;;;;;;5490910;26;20232;-66
2024/04/23 13:01:06;;;;;;;2.50;2.30;;;14.40;57.20;;;;;;5489703;26;20529;-67
2024/04/23 13:03:34;;;;;;;3.67;2.30;;;14.30;56.30;;;;;;5489842;26;20477;-66
2024/04/23 13:06:02;;;;;;;5.43;1.97;;;14.20;56.50;;;;;;5489367;26;20552;-66